createdAt,value
2018-04-23T00:00:58.437Z,31.20
2018-04-23T00:03:26.788Z,29.60
2018-04-23T00:05:54.385Z,30.40
2018-04-23T00:08:21.953Z,32.03
2018-04-23T00:10:49.615Z,29.13
2018-04-23T00:13:17.208Z,33.03
2018-04-23T00:15:44.826Z,33.43
2018-04-23T00:18:12.426Z,34.67
2018-04-23T00:20:40.008Z,29.70
2018-04-23T00:23:07.654Z,30.13
2018-04-23T00:25:35.249Z,28.07
2018-04-23T00:28:02.822Z,27.03
2018-04-23T00:30:30.415Z,26.63
2018-04-23T00:32:58.020Z,24.07
2018-04-23T00:35:26.385Z,17.73
2018-04-23T00:37:53.982Z,17.93
2018-04-23T00:40:22.371Z,17.47
2018-04-23T00:42:49.971Z,18.03
2018-04-23T00:45:18.352Z,18.53
2018-04-23T00:47:46.700Z,17.80
2018-04-23T00:50:14.295Z,17.70
2018-04-23T00:52:41.947Z,18.37
2018-04-23T00:55:09.573Z,19.30
2018-04-23T00:57:37.173Z,18.67
2018-04-23T01:00:04.799Z,20.57
2018-04-23T01:02:32.381Z,21.10
2018-04-23T01:05:00.037Z,22.37
2018-04-23T01:07:27.630Z,23.33
2018-04-23T01:09:55.199Z,23.00
2018-04-23T01:12:22.809Z,25.40
2018-04-23T01:14:50.388Z,24.40
2018-04-23T01:17:18.001Z,24.93
2018-04-23T01:19:45.644Z,24.60
2018-04-23T01:22:14.032Z,26.60
2018-04-23T01:24:41.647Z,25.47
2018-04-23T01:27:09.445Z,25.20
2018-04-23T01:29:37.004Z,27.10
2018-04-23T01:32:04.631Z,25.77
2018-04-23T01:34:32.194Z,28.30
2018-04-23T01:36:59.785Z,27.57
2018-04-23T01:39:27.408Z,26.80
2018-04-23T01:41:55.038Z,29.75
2018-04-23T01:44:22.641Z,29.20
2018-04-23T01:46:50.221Z,28.50
2018-04-23T01:49:17.808Z,30.55
2018-04-23T01:51:45.403Z,29.52
2018-04-23T01:54:13.034Z,31.27
2018-04-23T01:56:41.412Z,32.35
2018-04-23T01:59:09.813Z,34.25
2018-04-23T02:01:38.174Z,33.88
2018-04-23T02:04:05.733Z,33.55
2018-04-23T02:06:34.096Z,32.05
2018-04-23T02:09:01.712Z,30.95
2018-04-23T02:11:29.330Z,31.20
2018-04-23T02:13:57.715Z,30.97
2018-04-23T02:16:26.069Z,32.08
2018-04-23T02:18:53.685Z,33.35
2018-04-23T02:21:21.323Z,31.90
2018-04-23T02:23:49.704Z,32.55
2018-04-23T02:26:18.070Z,32.58
2018-04-23T02:28:45.716Z,34.50
2018-04-23T02:31:13.306Z,33.90
2018-04-23T02:33:40.945Z,33.47
2018-04-23T02:36:08.604Z,32.72
2018-04-23T02:38:36.242Z,33.75
2018-04-23T02:41:03.859Z,37.17
2018-04-23T02:43:31.455Z,37.83
2018-04-23T02:45:59.104Z,37.13
2018-04-23T02:48:26.700Z,40.63
2018-04-23T02:50:54.316Z,40.67
2018-04-23T02:53:21.902Z,38.67
2018-04-23T02:55:49.490Z,38.05
2018-04-23T02:58:17.109Z,41.63
2018-04-23T03:00:44.698Z,41.20
2018-04-23T03:03:12.341Z,41.75
2018-04-23T03:05:41.108Z,40.35
2018-04-23T03:08:08.785Z,42.85
2018-04-23T03:10:36.412Z,42.47
2018-04-23T03:13:04.030Z,43.55
2018-04-23T03:15:31.651Z,46.60
2018-04-23T03:17:59.315Z,45.72
2018-04-23T03:20:26.901Z,46.75
2018-04-23T03:22:54.535Z,47.83
2018-04-23T03:25:22.123Z,45.03
2018-04-23T03:27:50.471Z,44.45
2018-04-23T03:30:18.085Z,44.85
2018-04-23T03:32:45.684Z,46.05
2018-04-23T03:35:13.428Z,45.63
2018-04-23T03:37:41.812Z,40.17
2018-04-23T03:40:10.164Z,38.22
2018-04-23T03:42:37.764Z,37.78
2018-04-23T03:45:06.139Z,37.25
2018-04-23T03:47:34.516Z,35.15
2018-04-23T03:50:02.853Z,30.67
2018-04-23T03:52:30.451Z,27.60
2018-04-23T03:54:58.881Z,29.67
2018-04-23T03:57:26.510Z,30.60
2018-04-23T03:59:54.448Z,28.50
2018-04-23T04:02:22.074Z,29.40
2018-04-23T04:04:49.665Z,29.60
2018-04-23T04:07:17.277Z,29.17
2018-04-23T04:09:44.905Z,29.08
2018-04-23T04:15:25.910Z,29.95
2018-04-23T04:21:00.628Z,29.85
2018-04-23T04:23:28.295Z,33.63
2018-04-23T04:25:55.918Z,30.88
2018-04-23T04:28:24.331Z,31.23
2018-04-23T04:30:51.980Z,31.23
2018-04-23T04:33:19.661Z,32.38
2018-04-23T04:35:47.284Z,31.02
2018-04-23T04:38:14.947Z,30.50
2018-04-23T04:40:42.602Z,29.98
2018-04-23T04:43:10.188Z,29.05
2018-04-23T04:45:37.784Z,29.00
2018-04-23T04:48:06.155Z,27.65
2018-04-23T04:50:34.575Z,25.88
2018-04-23T04:53:02.208Z,24.25
2018-04-23T04:55:30.532Z,24.05
2018-04-23T04:57:58.169Z,22.60
2018-04-23T05:00:25.765Z,20.45
2018-04-23T05:02:53.358Z,23.80
2018-04-23T05:05:21.084Z,24.15
2018-04-23T05:07:49.539Z,20.90
2018-04-23T05:10:17.153Z,24.05
2018-04-23T05:12:44.751Z,21.90
2018-04-23T05:15:12.356Z,22.62
2018-04-23T05:17:40.010Z,24.95
2018-04-23T05:20:07.611Z,21.40
2018-04-23T05:22:36.054Z,21.40
2018-04-23T05:25:03.689Z,19.20
2018-04-23T05:27:31.409Z,20.40
2018-04-23T05:29:59.019Z,19.85
2018-04-23T05:32:26.680Z,19.12
2018-04-23T05:34:54.379Z,18.83
2018-04-23T05:37:22.010Z,20.45
2018-04-23T05:39:49.758Z,17.50
2018-04-23T05:42:17.420Z,17.00
2018-04-23T05:44:45.165Z,15.07
2018-04-23T05:47:12.930Z,15.60
2018-04-23T05:49:41.301Z,14.32
2018-04-23T05:52:09.718Z,14.60
2018-04-23T05:54:37.361Z,13.60
2018-04-23T05:57:11.204Z,15.03
2018-04-23T05:59:38.883Z,14.67
2018-04-23T06:02:06.489Z,15.43
2018-04-23T06:04:34.096Z,13.70
2018-04-23T06:07:01.740Z,15.85
2018-04-23T06:09:29.379Z,14.70
2018-04-23T06:11:57.020Z,15.48
2018-04-23T06:14:25.417Z,13.63
2018-04-23T06:16:53.016Z,14.10
2018-04-23T06:19:20.622Z,13.90
2018-04-23T06:21:48.306Z,12.63
2018-04-23T06:24:15.921Z,14.10
2018-04-23T06:26:43.561Z,13.87
2018-04-23T06:31:45.043Z,12.65
2018-04-23T06:34:12.688Z,13.15
2018-04-23T06:36:40.286Z,12.03
2018-04-23T06:39:07.890Z,12.30
2018-04-23T06:41:35.609Z,11.75
2018-04-23T06:44:03.255Z,11.40
2018-04-23T06:46:30.905Z,11.80
2018-04-23T06:48:58.669Z,11.90
2018-04-23T06:51:26.298Z,11.02
2018-04-23T06:53:55.265Z,12.95
2018-04-23T06:56:22.891Z,9.52
2018-04-23T06:58:50.580Z,12.30
2018-04-23T07:01:18.201Z,11.35
2018-04-23T07:03:45.773Z,10.83
2018-04-23T07:06:13.415Z,11.47
2018-04-23T07:08:41.011Z,11.90
2018-04-23T07:11:08.770Z,12.77
2018-04-23T07:13:36.399Z,10.23
2018-04-23T07:16:04.009Z,11.02
2018-04-23T07:18:31.612Z,10.07
2018-04-23T07:20:59.341Z,9.75
2018-04-23T07:23:26.943Z,12.03
2018-04-23T07:25:54.629Z,11.87
2018-04-23T07:28:22.298Z,11.63
2018-04-23T07:30:49.955Z,12.00
2018-04-23T07:33:17.561Z,11.70
2018-04-23T07:35:45.180Z,12.32
2018-04-23T07:38:12.792Z,10.27
2018-04-23T07:40:41.205Z,11.63
2018-04-23T07:43:08.810Z,10.32
2018-04-23T07:45:37.158Z,10.85
2018-04-23T07:48:04.741Z,11.40
2018-04-23T07:50:32.375Z,10.37
2018-04-23T07:52:59.980Z,11.17
2018-04-23T07:55:27.578Z,11.17
2018-04-23T07:57:55.336Z,11.70
2018-04-23T08:00:22.915Z,10.73
2018-04-23T08:02:50.549Z,9.10
2018-04-23T08:05:18.139Z,10.33
2018-04-23T08:07:45.771Z,11.00
2018-04-23T08:10:13.589Z,10.60
2018-04-23T08:12:41.186Z,11.77
2018-04-23T08:15:08.833Z,7.57
2018-04-23T08:17:36.446Z,9.20
2018-04-23T08:20:04.029Z,9.27
2018-04-23T08:22:31.611Z,8.93
2018-04-23T08:24:59.190Z,9.53
2018-04-23T08:27:26.773Z,8.83
2018-04-23T08:29:54.373Z,8.17
2018-04-23T08:32:21.929Z,7.97
2018-04-23T08:34:50.302Z,7.87
2018-04-23T08:37:17.872Z,9.93
2018-04-23T08:39:45.451Z,9.30
2018-04-23T08:42:13.019Z,8.97
2018-04-23T08:44:41.521Z,7.83
2018-04-23T08:47:09.120Z,9.17
2018-04-23T08:49:37.252Z,8.43
2018-04-23T08:52:05.638Z,6.87
2018-04-23T08:54:33.264Z,9.40
2018-04-23T08:57:00.904Z,6.50
2018-04-23T08:59:28.599Z,8.00
2018-04-23T09:01:56.968Z,6.57
2018-04-23T09:04:24.577Z,7.70
2018-04-23T09:06:52.151Z,8.03
2018-04-23T09:09:21.047Z,7.90
2018-04-23T09:11:48.841Z,7.87
2018-04-23T09:14:17.252Z,7.93
2018-04-23T09:16:45.610Z,7.60
2018-04-23T09:19:13.264Z,7.47
2018-04-23T09:21:40.866Z,7.77
2018-04-23T09:24:08.474Z,6.00
2018-04-23T09:26:36.202Z,6.37
2018-04-23T09:29:03.783Z,6.57
2018-04-23T09:31:31.431Z,5.83
2018-04-23T09:33:58.990Z,7.00
2018-04-23T09:36:26.609Z,6.57
2018-04-23T09:38:55.003Z,7.40
2018-04-23T09:41:22.562Z,7.03
2018-04-23T09:43:50.134Z,7.97
2018-04-23T09:46:17.726Z,7.23
2018-04-23T09:48:45.348Z,5.87
2018-04-23T09:51:13.004Z,4.87
2018-04-23T09:53:41.450Z,5.40
2018-04-23T09:56:09.082Z,7.67
2018-04-23T09:58:36.790Z,4.90
2018-04-23T10:01:10.695Z,5.37
2018-04-23T10:03:41.873Z,6.47
2018-04-23T10:06:09.499Z,5.33
2018-04-23T10:08:37.124Z,6.10
2018-04-23T10:11:04.787Z,6.03
2018-04-23T10:13:32.408Z,5.87
2018-04-23T10:16:00.763Z,5.57
2018-04-23T10:18:28.522Z,6.70
2018-04-23T10:20:56.239Z,5.17
2018-04-23T10:23:23.843Z,6.30
2018-04-23T10:25:51.440Z,6.60
2018-04-23T10:28:19.847Z,6.07
2018-04-23T10:30:47.447Z,5.30
2018-04-23T10:33:15.070Z,6.20
2018-04-23T10:35:42.645Z,6.07
2018-04-23T10:38:10.243Z,6.27
2018-04-23T10:40:37.885Z,4.90
2018-04-23T10:43:05.478Z,6.27
2018-04-23T10:45:33.988Z,5.67
2018-04-23T10:48:01.728Z,4.90
2018-04-23T10:50:30.356Z,5.17
2018-04-23T10:52:58.157Z,4.23
2018-04-23T10:55:25.797Z,4.53
2018-04-23T10:57:53.451Z,4.73
2018-04-23T11:00:21.083Z,4.37
2018-04-23T11:02:48.771Z,5.43
2018-04-23T11:05:16.377Z,4.77
2018-04-23T11:07:44.753Z,5.67
2018-04-23T11:10:13.386Z,6.40
2018-04-23T11:12:40.971Z,4.87
2018-04-23T11:15:08.601Z,7.13
2018-04-23T11:17:36.248Z,5.47
2018-04-23T11:20:04.407Z,5.80
2018-04-23T11:22:32.783Z,5.27
2018-04-23T11:25:01.177Z,4.53
2018-04-23T11:27:29.027Z,6.50
2018-04-23T11:29:56.634Z,5.60
2018-04-23T11:32:24.285Z,5.90
2018-04-23T11:34:51.848Z,4.77
2018-04-23T11:37:19.486Z,5.47
2018-04-23T11:39:47.074Z,5.10
2018-04-23T11:42:14.713Z,4.90
2018-04-23T11:44:42.298Z,6.27
2018-04-23T11:47:09.935Z,4.63
2018-04-23T11:49:37.555Z,5.27
2018-04-23T11:52:05.180Z,5.87
2018-04-23T11:54:32.831Z,6.00
2018-04-23T11:57:00.445Z,5.80
2018-04-23T11:59:28.658Z,6.23
2018-04-23T12:01:56.311Z,5.57
2018-04-23T12:04:23.941Z,7.67
2018-04-23T12:06:51.569Z,6.70
2018-04-23T12:09:19.982Z,5.43
2018-04-23T12:11:47.670Z,6.17
2018-04-23T12:14:16.048Z,6.87
2018-04-23T12:16:44.458Z,7.10
2018-04-23T12:19:12.054Z,6.93
2018-04-23T12:21:39.726Z,8.13
2018-04-23T12:24:07.354Z,10.47
2018-04-23T12:26:34.939Z,5.50
2018-04-23T12:29:02.578Z,5.27
2018-04-23T12:31:30.169Z,4.90
2018-04-23T12:33:57.805Z,4.60
2018-04-23T12:36:25.402Z,5.70
2018-04-23T12:38:52.988Z,5.87
2018-04-23T12:41:21.365Z,4.57
2018-04-23T12:43:49.711Z,5.20
2018-04-23T12:46:17.337Z,7.43
2018-04-23T12:48:44.933Z,6.40
2018-04-23T12:51:12.525Z,5.90
2018-04-23T12:53:40.172Z,6.00
2018-04-23T12:56:08.538Z,8.13
2018-04-23T12:58:36.112Z,6.97
2018-04-23T13:01:04.495Z,7.33
2018-04-23T13:03:32.925Z,7.20
2018-04-23T13:06:00.498Z,7.40
2018-04-23T13:08:28.112Z,6.60
2018-04-23T13:10:55.749Z,6.30
2018-04-23T13:13:23.332Z,6.93
2018-04-23T13:15:51.728Z,6.60
2018-04-23T13:18:19.473Z,6.40
2018-04-23T13:20:47.871Z,7.23
2018-04-23T13:23:15.454Z,5.87
2018-04-23T13:25:43.895Z,5.67
2018-04-23T13:28:12.229Z,6.07
2018-04-23T13:30:39.845Z,5.60
2018-04-23T13:33:07.468Z,6.30
2018-04-23T13:35:35.062Z,6.83
2018-04-23T13:38:02.664Z,5.33
2018-04-23T13:40:30.276Z,5.97
2018-04-23T13:42:58.759Z,6.13
2018-04-23T13:45:26.356Z,5.63
2018-04-23T13:47:53.934Z,6.57
2018-04-23T13:50:21.555Z,6.60
2018-04-23T13:52:49.156Z,5.33
2018-04-23T13:55:16.805Z,5.77
2018-04-23T13:57:44.366Z,5.23
2018-04-23T14:00:11.971Z,6.27
2018-04-23T14:02:40.486Z,6.07
2018-04-23T14:05:08.103Z,6.17
2018-04-23T14:07:35.732Z,6.10
2018-04-23T14:10:03.311Z,5.63
2018-04-23T14:12:30.971Z,5.30
2018-04-23T14:14:58.611Z,5.77
2018-04-23T14:17:26.239Z,5.97
2018-04-23T14:19:53.944Z,5.20
2018-04-23T14:22:21.610Z,4.40
2018-04-23T14:24:49.221Z,5.33
2018-04-23T14:27:17.694Z,4.10
2018-04-23T14:29:45.332Z,4.80
2018-04-23T14:32:13.917Z,3.53
2018-04-23T14:34:41.610Z,3.80
2018-04-23T14:37:09.220Z,6.00
2018-04-23T14:39:36.903Z,4.13
2018-04-23T14:42:04.517Z,4.40
2018-04-23T14:44:32.106Z,4.93
2018-04-23T14:46:59.695Z,4.07
2018-04-23T14:49:27.571Z,5.47
2018-04-23T14:51:55.950Z,5.10
2018-04-23T14:54:24.323Z,3.83
2018-04-23T14:56:52.061Z,3.77
2018-04-23T14:59:19.722Z,4.07
2018-04-23T15:01:47.378Z,3.63
2018-04-23T15:04:15.146Z,4.27
2018-04-23T15:06:42.740Z,3.77
2018-04-23T15:09:11.311Z,4.03
2018-04-23T15:11:38.913Z,4.67
2018-04-23T15:14:07.619Z,3.43
2018-04-23T15:16:35.213Z,3.37
2018-04-23T15:19:02.860Z,3.17
2018-04-23T15:21:30.466Z,3.23
2018-04-23T15:23:58.142Z,3.23
2018-04-23T15:26:25.916Z,4.00
2018-04-23T15:28:53.956Z,3.20
2018-04-23T15:31:21.588Z,3.67
2018-04-23T15:33:49.182Z,2.97
2018-04-23T15:36:17.139Z,3.60
2018-04-23T15:38:45.538Z,2.77
2018-04-23T15:41:13.894Z,2.60
2018-04-23T15:43:42.264Z,2.70
2018-04-23T15:46:09.885Z,3.07
2018-04-23T15:48:37.483Z,2.70
2018-04-23T15:51:05.053Z,3.63
2018-04-23T15:53:32.711Z,3.53
2018-04-23T15:56:00.416Z,2.73
2018-04-23T15:58:28.043Z,3.40
2018-04-23T16:00:55.629Z,3.63
2018-04-23T16:03:23.252Z,2.80
2018-04-23T16:05:50.835Z,4.87
2018-04-23T16:08:19.213Z,2.53
2018-04-23T16:10:47.674Z,3.37
2018-04-23T16:13:15.275Z,3.20
2018-04-23T16:15:42.878Z,3.10
2018-04-23T16:18:10.511Z,3.30
2018-04-23T16:20:38.122Z,3.20
2018-04-23T16:23:06.505Z,4.10
2018-04-23T16:25:34.114Z,3.40
2018-04-23T16:28:01.726Z,3.33
2018-04-23T16:30:29.334Z,3.50
2018-04-23T16:32:57.074Z,3.30
2018-04-23T16:35:24.782Z,3.67
2018-04-23T16:37:52.370Z,4.03
2018-04-23T16:40:20.751Z,3.40
2018-04-23T16:42:48.425Z,3.40
2018-04-23T16:45:16.046Z,3.00
2018-04-23T16:47:43.764Z,3.70
2018-04-23T16:50:11.407Z,3.90
2018-04-23T16:52:39.132Z,3.37
2018-04-23T16:55:06.731Z,3.93
2018-04-23T16:57:34.463Z,3.90
2018-04-23T17:00:02.850Z,3.10
2018-04-23T17:02:31.342Z,3.90
2018-04-23T17:04:58.976Z,3.70
2018-04-23T17:07:26.560Z,3.40
2018-04-23T17:09:54.229Z,3.70
2018-04-23T17:12:21.869Z,3.90
2018-04-23T17:14:49.474Z,5.80
2018-04-23T17:17:18.010Z,3.97
2018-04-23T17:19:45.594Z,3.97
2018-04-23T17:22:13.981Z,3.40
2018-04-23T17:24:41.613Z,2.80
2018-04-23T17:27:09.309Z,3.07
2018-04-23T17:29:37.701Z,2.80
2018-04-23T17:32:05.379Z,2.73
2018-04-23T17:34:33.068Z,2.90
2018-04-23T17:37:00.698Z,2.80
2018-04-23T17:39:29.689Z,2.67
2018-04-23T17:42:04.491Z,2.40
2018-04-23T17:44:32.207Z,2.83
2018-04-23T17:46:59.788Z,2.40
2018-04-23T17:49:27.410Z,3.00
2018-04-23T17:51:55.037Z,3.10
2018-04-23T17:54:22.631Z,2.90
2018-04-23T17:56:50.234Z,3.47
2018-04-23T17:59:17.847Z,2.60
2018-04-23T18:01:45.443Z,2.97
2018-04-23T18:04:13.114Z,3.07
2018-04-23T18:06:40.682Z,2.47
2018-04-23T18:09:08.325Z,3.10
2018-04-23T18:11:35.923Z,2.70
2018-04-23T18:14:03.571Z,3.70
2018-04-23T18:16:31.150Z,2.90
2018-04-23T18:18:58.786Z,2.60
2018-04-23T18:21:26.350Z,2.70
2018-04-23T18:23:53.980Z,2.60
2018-04-23T18:26:21.589Z,3.15
2018-04-23T18:28:49.173Z,2.35
2018-04-23T18:31:16.825Z,3.05
2018-04-23T18:33:45.184Z,2.70
2018-04-23T18:36:12.799Z,2.28
2018-04-23T18:38:40.474Z,3.00
2018-04-23T18:41:08.107Z,2.50
2018-04-23T18:43:35.723Z,2.57
2018-04-23T18:46:03.361Z,2.28
2018-04-23T18:48:31.004Z,2.65
2018-04-23T18:50:58.686Z,2.28
2018-04-23T18:53:26.310Z,2.40
2018-04-23T18:55:53.921Z,2.33
2018-04-23T18:58:21.555Z,2.62
2018-04-23T19:00:49.174Z,2.55
2018-04-23T19:03:17.532Z,3.00
2018-04-23T19:05:45.214Z,2.50
2018-04-23T19:08:12.783Z,2.60
2018-04-23T19:10:40.431Z,2.65
2018-04-23T19:13:08.043Z,2.03
2018-04-23T19:15:35.680Z,2.85
2018-04-23T19:18:03.246Z,1.95
2018-04-23T19:20:30.865Z,2.40
2018-04-23T19:22:58.482Z,2.33
2018-04-23T19:25:26.052Z,2.30
2018-04-23T19:27:53.669Z,1.95
2018-04-23T19:30:21.451Z,2.90
2018-04-23T19:32:49.068Z,2.00
2018-04-23T19:35:16.721Z,2.40
2018-04-23T19:37:45.431Z,1.95
2018-04-23T19:40:13.091Z,2.10
2018-04-23T19:42:40.751Z,2.60
2018-04-23T19:45:08.365Z,2.00
2018-04-23T19:47:35.976Z,2.45
2018-04-23T19:50:03.682Z,2.55
2018-04-23T19:52:31.289Z,2.28
2018-04-23T19:54:58.879Z,2.45
2018-04-23T19:57:27.261Z,1.85
2018-04-23T19:59:55.635Z,1.90
2018-04-23T20:02:24.018Z,2.67
2018-04-23T20:04:52.376Z,2.30
2018-04-23T20:07:20.205Z,1.98
2018-04-23T20:09:47.823Z,2.53
2018-04-23T20:12:16.243Z,2.90
2018-04-23T20:14:43.880Z,2.40
2018-04-23T20:17:11.465Z,2.37
2018-04-23T20:19:39.071Z,3.00
2018-04-23T20:22:06.779Z,2.25
2018-04-23T20:24:34.434Z,2.45
2018-04-23T20:27:02.039Z,2.30
2018-04-23T20:29:29.665Z,1.85
2018-04-23T20:31:57.343Z,2.70
2018-04-23T20:34:24.991Z,2.50
2018-04-23T20:36:52.622Z,3.15
2018-04-23T20:39:20.996Z,2.72
2018-04-23T20:41:49.410Z,2.20
2018-04-23T20:44:17.089Z,3.53
2018-04-23T20:46:44.700Z,2.17
2018-04-23T20:49:13.072Z,2.20
2018-04-23T20:51:41.409Z,2.15
2018-04-23T20:54:08.982Z,2.60
2018-04-23T20:56:36.566Z,2.42
2018-04-23T20:59:04.147Z,2.15
2018-04-23T21:01:32.493Z,2.60
2018-04-23T21:04:00.094Z,2.20
2018-04-23T21:06:27.726Z,3.10
2018-04-23T21:08:56.071Z,2.80
2018-04-23T21:11:23.728Z,2.58
2018-04-23T21:13:51.363Z,3.12
2018-04-23T21:16:19.023Z,2.90
2018-04-23T21:18:46.883Z,2.62
2018-04-23T21:21:14.504Z,3.35
2018-04-23T21:23:42.104Z,2.72
2018-04-23T21:26:09.715Z,3.10
2018-04-23T21:28:37.307Z,3.05
2018-04-23T21:31:05.768Z,3.65
2018-04-23T21:33:33.346Z,3.00
2018-04-23T21:36:01.598Z,2.62
2018-04-23T21:38:29.983Z,3.30
2018-04-23T21:40:57.549Z,2.60
2018-04-23T21:43:25.287Z,3.08
2018-04-23T21:45:52.880Z,2.62
2018-04-23T21:48:20.513Z,3.25
2018-04-23T21:50:48.106Z,3.10
2018-04-23T21:53:15.712Z,3.25
2018-04-23T21:55:43.575Z,2.95
2018-04-23T21:58:11.193Z,3.37
2018-04-23T22:00:38.789Z,3.08
2018-04-23T22:03:06.377Z,3.62
2018-04-23T22:05:33.996Z,4.00
2018-04-23T22:08:02.342Z,3.45
2018-04-23T22:10:29.909Z,4.10
2018-04-23T22:12:57.572Z,3.67
2018-04-23T22:15:25.141Z,4.40
2018-04-23T22:17:52.743Z,4.28
2018-04-23T22:20:20.344Z,3.37
2018-04-23T22:22:47.923Z,3.85
2018-04-23T22:25:16.271Z,4.12
2018-04-23T22:27:43.877Z,3.42
2018-04-23T22:30:12.237Z,3.90
2018-04-23T22:32:40.582Z,3.55
2018-04-23T22:35:08.211Z,3.40
2018-04-23T22:37:35.773Z,3.58
2018-04-23T22:40:03.378Z,4.55
2018-04-23T22:42:30.966Z,3.72
2018-04-23T22:44:59.315Z,4.00
2018-04-23T22:47:26.893Z,4.65
2018-04-23T22:49:54.552Z,4.37
2018-04-23T22:52:22.149Z,4.28
2018-04-23T22:54:49.754Z,3.87
2018-04-23T22:57:17.366Z,3.15
2018-04-23T22:59:44.956Z,3.78
2018-04-23T23:02:12.522Z,3.65
2018-04-23T23:04:40.744Z,4.12
2018-04-23T23:07:09.117Z,4.03
2018-04-23T23:09:37.504Z,4.22
2018-04-23T23:12:05.849Z,4.45
2018-04-23T23:14:33.448Z,3.40
2018-04-23T23:17:02.680Z,4.32
2018-04-23T23:19:30.335Z,4.32
2018-04-23T23:21:57.937Z,4.55
2018-04-23T23:24:25.495Z,3.80
2018-04-23T23:26:53.121Z,4.18
2018-04-23T23:29:20.692Z,4.15
2018-04-23T23:31:48.284Z,4.70
2018-04-23T23:34:15.890Z,3.85
2018-04-23T23:36:43.470Z,4.00
2018-04-23T23:39:11.028Z,4.12
2018-04-23T23:41:38.596Z,5.32
2018-04-23T23:44:06.224Z,4.90
2018-04-23T23:46:33.810Z,4.07
2018-04-23T23:49:01.392Z,5.12
2018-04-23T23:51:28.953Z,4.40
2018-04-23T23:53:56.545Z,4.37
2018-04-23T23:56:24.123Z,4.45
2018-04-23T23:58:51.994Z,4.35
